Charleston, SC (29401)

1:22 PM EST on February 08, 2016 (GMT -0500)
Downtown Charleston | | Change Station
CLOSE
Current Station
Personal Weather Station
Location: Charleston, SC
Elevation: 23 ft
Nearby Weather Stations

Elev 23 ft 32.79 °N, 79.95 °W | Updated 15 seconds ago

Clear
Clear
62.4 °F
Feels Like 62.4 °F
N
3.6
Wind Variable Wind from West
Gusts 4.9 mph

Today
High -- | Low -- °F
--% Chance of Precip.
Yesterday
High -- | Low -- °F
Precip. -- in
Pressure 29.81 in
Visibility 10.0 miles
Clouds Clear
Dew Point 31 °F
Humidity 30%
Rainfall 0.00 in
Snow Depth Not available.
7:09 AM 5:58 PM
New Moon, 0% visible
METAR KJZI 081815Z AUTO 20010G16KT 10SM CLR 15/04 A2981 RMK AO2
Pressure 29.81 in
Visibility 10.0 miles
Clouds Clear
Dew Point 31 °F
Humidity 30%
Rainfall 0.00 in
Snow Depth Not available.
7:09 AM 5:58 PM
New Moon, 0% visible
METAR KJZI 081815Z AUTO 20010G16KT 10SM CLR 15/04 A2981 RMK AO2

10-Day Weather Forecast

Almanac

Astronomy

Feb. 08, 2016 Rise Set
Actual Time
Civil Twilight
Nautical Twilight
Astronomical Twilight
Moon
Length of Visible Light
Length of Day
Tomorrow will be .
, % of the Moon is Illuminated

Today's Extremes

State Highs State Lows

Community

WunderPhotos

Upload Photos

1,891,476 photos uploaded!

WunderBlog® & News

Nearby

Air Quality

  Air Quality AQ Index Pollutant
Not available.

Snow Depth

Station Depth Elevation

Earthquake Activity

City Distance Mag. Time & Date
Minimum magnitude displayed is 2.5.

Coastal Water Temperatures

Place Temperature

Stations

Nearby Weather Stations

Station Location Temp. Windchill Dew Point Humidity Wind Precip. Elev Updated Type
                   

Watches & Warnings

There are currently no watches in effect.